sensor_id;sensor_type;location;lat;lon;timestamp;pressure;altitude;pressure_sealevel;temperature;humidity
48614;BME280;34408;51.426;5.444;2023-01-27T00:01:14;102389.59;;;6.36;66.52
48614;BME280;34408;51.426;5.444;2023-01-27T00:03:43;102371.53;;;6.30;66.95
48614;BME280;34408;51.426;5.444;2023-01-27T00:06:10;102378.38;;;6.33;66.64
48614;BME280;34408;51.426;5.444;2023-01-27T00:08:38;102379.69;;;6.29;66.74
48614;BME280;34408;51.426;5.444;2023-01-27T00:11:07;102373.19;;;6.31;66.47
48614;BME280;34408;51.426;5.444;2023-01-27T00:13:54;102375.03;;;6.31;66.92
48614;BME280;34408;51.426;5.444;2023-01-27T00:16:22;102381.34;;;6.30;66.40
48614;BME280;34408;51.426;5.444;2023-01-27T00:18:49;102378.69;;;6.30;66.75
48614;BME280;34408;51.426;5.444;2023-01-27T00:21:17;102376.19;;;6.28;66.77
48614;BME280;34408;51.426;5.444;2023-01-27T00:24:03;102377.53;;;6.32;66.34
48614;BME280;34408;51.426;5.444;2023-01-27T00:26:50;102375.72;;;6.33;66.67
48614;BME280;34408;51.426;5.444;2023-01-27T00:29:17;102372.19;;;6.32;66.55
48614;BME280;34408;51.426;5.444;2023-01-27T00:31:45;102373.03;;;6.33;66.79
48614;BME280;34408;51.426;5.444;2023-01-27T00:34:30;102368.69;;;6.32;66.52
48614;BME280;34408;51.426;5.444;2023-01-27T00:36:58;102374.88;;;6.32;66.84
48614;BME280;34408;51.426;5.444;2023-01-27T00:39:26;102379.22;;;6.33;66.65
48614;BME280;34408;51.426;5.444;2023-01-27T00:41:55;102362.34;;;6.33;66.93
48614;BME280;34408;51.426;5.444;2023-01-27T00:44:23;102361.38;;;6.34;66.43
48614;BME280;34408;51.426;5.444;2023-01-27T00:46:51;102367.38;;;6.36;66.75
48614;BME280;34408;51.426;5.444;2023-01-27T00:49:18;102370.88;;;6.36;66.19
48614;BME280;34408;51.426;5.444;2023-01-27T00:51:46;102371.72;;;6.37;66.24
48614;BME280;34408;51.426;5.444;2023-01-27T00:54:14;102377.22;;;6.35;66.52
48614;BME280;34408;51.426;5.444;2023-01-27T00:56:42;102377.22;;;6.35;66.55
48614;BME280;34408;51.426;5.444;2023-01-27T00:59:11;102376.06;;;6.38;66.30
48614;BME280;34408;51.426;5.444;2023-01-27T01:01:39;102384.72;;;6.32;65.76
48614;BME280;34408;51.426;5.444;2023-01-27T01:04:07;102381.50;;;6.28;66.25
48614;BME280;34408;51.426;5.444;2023-01-27T01:06:35;102378.84;;;6.28;66.56
48614;BME280;34408;51.426;5.444;2023-01-27T01:09:02;102377.84;;;6.29;66.46
48614;BME280;34408;51.426;5.444;2023-01-27T01:11:30;102380.53;;;6.29;66.39
48614;BME280;34408;51.426;5.444;2023-01-27T01:13:58;102385.84;;;6.29;66.51
48614;BME280;34408;51.426;5.444;2023-01-27T01:16:27;102388.84;;;6.26;66.59
48614;BME280;34408;51.426;5.444;2023-01-27T01:18:56;102380.84;;;6.26;66.64
48614;BME280;34408;51.426;5.444;2023-01-27T01:21:24;102389.69;;;6.27;66.71
48614;BME280;34408;51.426;5.444;2023-01-27T01:23:52;102381.75;;;6.17;67.32
48614;BME280;34408;51.426;5.444;2023-01-27T01:26:20;102388.25;;;6.14;67.14
48614;BME280;34408;51.426;5.444;2023-01-27T01:28:47;102390.91;;;6.14;67.07
48614;BME280;34408;51.426;5.444;2023-01-27T01:31:17;102393.59;;;6.14;67.02
48614;BME280;34408;51.426;5.444;2023-01-27T01:33:47;102396.41;;;6.13;67.29
48614;BME280;34408;51.426;5.444;2023-01-27T01:36:16;102390.22;;;6.12;66.87
48614;BME280;34408;51.426;5.444;2023-01-27T01:38:44;102403.22;;;6.07;67.15
48614;BME280;34408;51.426;5.444;2023-01-27T01:41:15;102399.09;;;6.13;67.26
48614;BME280;34408;51.426;5.444;2023-01-27T01:43:43;102399.63;;;6.16;66.97
48614;BME280;34408;51.426;5.444;2023-01-27T01:46:12;102403.81;;;6.19;66.84
48614;BME280;34408;51.426;5.444;2023-01-27T01:48:42;102406.31;;;6.20;66.77
48614;BME280;34408;51.426;5.444;2023-01-27T01:51:17;102409.75;;;6.13;66.78
48614;BME280;34408;51.426;5.444;2023-01-27T01:53:49;102396.88;;;6.08;67.38
48614;BME280;34408;51.426;5.444;2023-01-27T01:56:22;102401.84;;;6.03;66.99
48614;BME280;34408;51.426;5.444;2023-01-27T01:58:52;102405.03;;;6.07;66.80
48614;BME280;34408;51.426;5.444;2023-01-27T02:01:22;102412.34;;;6.05;66.74
48614;BME280;34408;51.426;5.444;2023-01-27T02:03:52;102412.44;;;5.95;66.53
48614;BME280;34408;51.426;5.444;2023-01-27T02:06:22;102405.97;;;5.98;66.49
48614;BME280;34408;51.426;5.444;2023-01-27T02:08:50;102400.84;;;6.04;65.97
48614;BME280;34408;51.426;5.444;2023-01-27T02:11:18;102396.81;;;6.00;65.35
48614;BME280;34408;51.426;5.444;2023-01-27T02:13:46;102415.78;;;5.97;65.98
48614;BME280;34408;51.426;5.444;2023-01-27T02:16:14;102402.66;;;5.86;66.10
48614;BME280;34408;51.426;5.444;2023-01-27T02:18:42;102410.31;;;5.99;65.90
48614;BME280;34408;51.426;5.444;2023-01-27T02:21:10;102411.00;;;6.01;65.76
48614;BME280;34408;51.426;5.444;2023-01-27T02:23:55;102417.25;;;5.92;66.19
48614;BME280;34408;51.426;5.444;2023-01-27T02:26:29;102411.00;;;6.01;65.29
48614;BME280;34408;51.426;5.444;2023-01-27T02:28:59;102413.50;;;6.02;65.57
48614;BME280;34408;51.426;5.444;2023-01-27T02:31:27;102412.34;;;6.05;65.62
48614;BME280;34408;51.426;5.444;2023-01-27T02:33:59;102416.84;;;6.04;65.70
48614;BME280;34408;51.426;5.444;2023-01-27T02:36:32;102425.31;;;6.00;65.78
48614;BME280;34408;51.426;5.444;2023-01-27T02:39:01;102424.78;;;5.96;65.87
48614;BME280;34408;51.426;5.444;2023-01-27T02:41:34;102424.19;;;6.02;65.84
48614;BME280;34408;51.426;5.444;2023-01-27T02:44:04;102425.31;;;6.00;65.80
48614;BME280;34408;51.426;5.444;2023-01-27T02:46:32;102420.59;;;5.94;65.79
48614;BME280;34408;51.426;5.444;2023-01-27T02:49:00;102427.16;;;5.99;65.37
48614;BME280;34408;51.426;5.444;2023-01-27T02:51:28;102424.84;;;5.86;65.73
48614;BME280;34408;51.426;5.444;2023-01-27T02:53:55;102426.59;;;5.78;65.86
48614;BME280;34408;51.426;5.444;2023-01-27T02:56:23;102425.13;;;5.83;65.45
48614;BME280;34408;51.426;5.444;2023-01-27T02:58:52;102423.47;;;5.82;65.52
48614;BME280;34408;51.426;5.444;2023-01-27T03:01:22;102427.97;;;5.82;65.30
48614;BME280;34408;51.426;5.444;2023-01-27T03:03:50;102430.84;;;5.71;65.53
48614;BME280;34408;51.426;5.444;2023-01-27T03:06:19;102428.78;;;5.82;65.43
48614;BME280;34408;51.426;5.444;2023-01-27T03:08:47;102429.91;;;5.90;65.37
48614;BME280;34408;51.426;5.444;2023-01-27T03:11:15;102430.75;;;5.90;64.91
48614;BME280;34408;51.426;5.444;2023-01-27T03:14:04;102435.19;;;5.72;65.00
48614;BME280;34408;51.426;5.444;2023-01-27T03:16:32;102438.53;;;5.74;65.47
48614;BME280;34408;51.426;5.444;2023-01-27T03:19:18;102429.72;;;5.73;65.61
48614;BME280;34408;51.426;5.444;2023-01-27T03:21:45;102427.88;;;5.74;65.58
48614;BME280;34408;51.426;5.444;2023-01-27T03:24:16;102425.44;;;5.80;65.38
48614;BME280;34408;51.426;5.444;2023-01-27T03:26:44;102426.03;;;5.74;65.67
48614;BME280;34408;51.426;5.444;2023-01-27T03:29:14;102430.47;;;5.83;65.35
48614;BME280;34408;51.426;5.444;2023-01-27T03:31:59;102431.31;;;5.84;65.30
48614;BME280;34408;51.426;5.444;2023-01-27T03:34:27;102438.75;;;5.90;65.35
48614;BME280;34408;51.426;5.444;2023-01-27T03:36:54;102446.88;;;5.88;65.07
48614;BME280;34408;51.426;5.444;2023-01-27T03:39:40;102440.69;;;5.88;65.30
48614;BME280;34408;51.426;5.444;2023-01-27T03:42:25;102454.44;;;5.93;65.23
48614;BME280;34408;51.426;5.444;2023-01-27T03:45:12;102446.59;;;5.92;65.15
48614;BME280;34408;51.426;5.444;2023-01-27T03:47:57;102447.84;;;5.87;65.45
48614;BME280;34408;51.426;5.444;2023-01-27T03:50:25;102455.84;;;5.87;65.23
48614;BME280;34408;51.426;5.444;2023-01-27T03:53:02;102460.97;;;5.81;65.51
48614;BME280;34408;51.426;5.444;2023-01-27T03:55:31;102457.16;;;5.83;65.44
48614;BME280;34408;51.426;5.444;2023-01-27T03:57:59;102454.34;;;5.85;65.03
48614;BME280;34408;51.426;5.444;2023-01-27T04:00:41;102458.06;;;5.74;65.56
48614;BME280;34408;51.426;5.444;2023-01-27T04:03:09;102455.69;;;5.71;65.62
48614;BME280;34408;51.426;5.444;2023-01-27T04:05:55;102456.47;;;5.81;65.66
48614;BME280;34408;51.426;5.444;2023-01-27T04:08:41;102456.91;;;5.77;65.63
48614;BME280;34408;51.426;5.444;2023-01-27T04:11:09;102460.56;;;5.76;65.81
48614;BME280;34408;51.426;5.444;2023-01-27T04:13:59;102461.13;;;5.79;65.60
48614;BME280;34408;51.426;5.444;2023-01-27T04:16:29;102460.44;;;5.77;65.94
48614;BME280;34408;51.426;5.444;2023-01-27T04:18:57;102467.75;;;5.75;65.67
48614;BME280;34408;51.426;5.444;2023-01-27T04:21:25;102470.78;;;5.80;65.86
48614;BME280;34408;51.426;5.444;2023-01-27T04:23:52;102471.63;;;5.81;66.15
48614;BME280;34408;51.426;5.444;2023-01-27T04:26:21;102468.66;;;5.84;66.03
48614;BME280;34408;51.426;5.444;2023-01-27T04:28:48;102465.47;;;5.80;66.14
48614;BME280;34408;51.426;5.444;2023-01-27T04:31:17;102464.31;;;5.83;66.26
48614;BME280;34408;51.426;5.444;2023-01-27T04:33:46;102464.63;;;5.80;66.34
48614;BME280;34408;51.426;5.444;2023-01-27T04:36:14;102463.63;;;5.81;66.26
48614;BME280;34408;51.426;5.444;2023-01-27T04:38:42;102474.16;;;5.82;66.33
48614;BME280;34408;51.426;5.444;2023-01-27T04:41:10;102465.84;;;5.85;66.02
48614;BME280;34408;51.426;5.444;2023-01-27T04:43:38;102473.00;;;5.85;66.20
48614;BME280;34408;51.426;5.444;2023-01-27T04:46:05;102477.22;;;5.87;66.09
48614;BME280;34408;51.426;5.444;2023-01-27T04:48:33;102473.56;;;5.88;66.12
48614;BME280;34408;51.426;5.444;2023-01-27T04:51:02;102476.94;;;5.91;66.23
48614;BME280;34408;51.426;5.444;2023-01-27T04:53:30;102475.94;;;5.92;66.02
48614;BME280;34408;51.426;5.444;2023-01-27T04:56:01;102483.13;;;5.91;66.11
48614;BME280;34408;51.426;5.444;2023-01-27T04:58:29;102485.94;;;5.90;66.26
48614;BME280;34408;51.426;5.444;2023-01-27T05:00:57;102489.44;;;5.90;66.40
48614;BME280;34408;51.426;5.444;2023-01-27T05:03:25;102489.56;;;5.88;66.06
48614;BME280;34408;51.426;5.444;2023-01-27T05:05:53;102499.28;;;5.90;66.05
48614;BME280;34408;51.426;5.444;2023-01-27T05:08:22;102494.47;;;5.93;65.92
48614;BME280;34408;51.426;5.444;2023-01-27T05:10:50;102495.63;;;5.91;65.98
48614;BME280;34408;51.426;5.444;2023-01-27T05:13:18;102498.97;;;5.93;65.66
48614;BME280;34408;51.426;5.444;2023-01-27T05:15:46;102507.97;;;5.92;65.97
48614;BME280;34408;51.426;5.444;2023-01-27T05:18:14;102504.31;;;5.93;65.75
48614;BME280;34408;51.426;5.444;2023-01-27T05:20:41;102500.81;;;5.92;65.70
48614;BME280;34408;51.426;5.444;2023-01-27T05:23:09;102508.22;;;5.88;65.78
48614;BME280;34408;51.426;5.444;2023-01-27T05:25:56;102514.56;;;5.87;65.69
48614;BME280;34408;51.426;5.444;2023-01-27T05:28:23;102521.72;;;5.87;65.78
48614;BME280;34408;51.426;5.444;2023-01-27T05:31:00;102521.34;;;5.82;66.20
48614;BME280;34408;51.426;5.444;2023-01-27T05:33:28;102521.47;;;5.80;66.22
48614;BME280;34408;51.426;5.444;2023-01-27T05:36:00;102520.50;;;5.81;66.25
48614;BME280;34408;51.426;5.444;2023-01-27T05:38:28;102517.59;;;5.75;66.73
48614;BME280;34408;51.426;5.444;2023-01-27T05:41:00;102521.34;;;5.82;66.02
48614;BME280;34408;51.426;5.444;2023-01-27T05:43:28;102524.22;;;5.71;66.41
48614;BME280;34408;51.426;5.444;2023-01-27T05:46:07;102534.72;;;5.72;66.55
48614;BME280;34408;51.426;5.444;2023-01-27T05:48:36;102533.34;;;5.68;66.70
48614;BME280;34408;51.426;5.444;2023-01-27T05:51:05;102533.03;;;5.71;66.54
48614;BME280;34408;51.426;5.444;2023-01-27T05:53:33;102528.25;;;5.75;66.45
48614;BME280;34408;51.426;5.444;2023-01-27T05:56:04;102534.56;;;5.74;66.35
48614;BME280;34408;51.426;5.444;2023-01-27T05:58:34;102537.41;;;5.72;66.28
48614;BME280;34408;51.426;5.444;2023-01-27T06:01:06;102532.75;;;5.74;66.24
48614;BME280;34408;51.426;5.444;2023-01-27T06:03:34;102546.38;;;5.71;66.12
48614;BME280;34408;51.426;5.444;2023-01-27T06:06:03;102544.84;;;5.69;66.31
48614;BME280;34408;51.426;5.444;2023-01-27T06:08:30;102542.72;;;5.72;66.15
48614;BME280;34408;51.426;5.444;2023-01-27T06:10:59;102541.59;;;5.75;66.20
48614;BME280;34408;51.426;5.444;2023-01-27T06:13:28;102532.59;;;5.76;66.15
48614;BME280;34408;51.426;5.444;2023-01-27T06:15:56;102539.22;;;5.72;66.28
48614;BME280;34408;51.426;5.444;2023-01-27T06:18:23;102534.44;;;5.75;66.27
48614;BME280;34408;51.426;5.444;2023-01-27T06:20:51;102541.28;;;5.78;66.16
48614;BME280;34408;51.426;5.444;2023-01-27T06:23:19;102545.84;;;5.68;66.12
48614;BME280;34408;51.426;5.444;2023-01-27T06:25:47;102544.84;;;5.69;66.37
48614;BME280;34408;51.426;5.444;2023-01-27T06:28:15;102539.66;;;5.67;66.32
48614;BME280;34408;51.426;5.444;2023-01-27T06:31:05;102535.06;;;5.60;66.57
48614;BME280;34408;51.426;5.444;2023-01-27T06:33:33;102552.47;;;5.64;66.35
48614;BME280;34408;51.426;5.444;2023-01-27T06:36:02;102545.16;;;5.66;66.36
48614;BME280;34408;51.426;5.444;2023-01-27T06:38:31;102545.66;;;5.79;65.91
48614;BME280;34408;51.426;5.444;2023-01-27T06:40:59;102551.50;;;5.92;65.48
48614;BME280;34408;51.426;5.444;2023-01-27T06:43:27;102541.16;;;6.07;64.75
48614;BME280;34408;51.426;5.444;2023-01-27T06:45:55;102549.34;;;6.23;64.53
48614;BME280;34408;51.426;5.444;2023-01-27T06:48:27;102552.69;;;6.43;63.61
48614;BME280;34408;51.426;5.444;2023-01-27T06:50:56;102555.50;;;6.59;63.50
48614;BME280;34408;51.426;5.444;2023-01-27T06:53:27;102544.19;;;6.83;62.58
48614;BME280;34408;51.426;5.444;2023-01-27T06:55:58;102546.75;;;6.93;61.87
48614;BME280;34408;51.426;5.444;2023-01-27T06:58:27;102536.63;;;7.04;61.57
48614;BME280;34408;51.426;5.444;2023-01-27T07:00:55;102544.91;;;7.19;60.72
48614;BME280;34408;51.426;5.444;2023-01-27T07:03:25;102540.28;;;7.29;60.23
48614;BME280;34408;51.426;5.444;2023-01-27T07:05:52;102543.19;;;7.44;60.18
48614;BME280;34408;51.426;5.444;2023-01-27T07:08:20;102542.53;;;7.42;60.61
48614;BME280;34408;51.426;5.444;2023-01-27T07:10:48;102552.06;;;7.44;59.71
48614;BME280;34408;51.426;5.444;2023-01-27T07:13:16;102549.91;;;7.48;59.85
48614;BME280;34408;51.426;5.444;2023-01-27T07:15:44;102553.34;;;7.32;59.69
48614;BME280;34408;51.426;5.444;2023-01-27T07:18:12;102559.72;;;7.39;60.44
48614;BME280;34408;51.426;5.444;2023-01-27T07:20:41;102564.72;;;7.34;59.70
48614;BME280;34408;51.426;5.444;2023-01-27T07:23:09;102567.81;;;7.22;60.55
48614;BME280;34408;51.426;5.444;2023-01-27T07:25:38;102565.09;;;7.13;60.27
48614;BME280;34408;51.426;5.444;2023-01-27T07:28:06;102573.50;;;6.93;61.52
48614;BME280;34408;51.426;5.444;2023-01-27T07:30:34;102581.91;;;6.80;61.68
48614;BME280;34408;51.426;5.444;2023-01-27T07:33:03;102572.69;;;6.57;62.17
48614;BME280;34408;51.426;5.444;2023-01-27T07:35:31;102570.16;;;6.55;62.32
48614;BME280;34408;51.426;5.444;2023-01-27T07:38:01;102575.97;;;6.50;62.93
48614;BME280;34408;51.426;5.444;2023-01-27T07:40:29;102570.94;;;6.47;63.02
48614;BME280;34408;51.426;5.444;2023-01-27T07:42:57;102568.25;;;6.47;62.46
48614;BME280;34408;51.426;5.444;2023-01-27T07:45:25;102567.81;;;6.34;63.29
48614;BME280;34408;51.426;5.444;2023-01-27T07:47:58;102569.78;;;6.32;63.03
48614;BME280;34408;51.426;5.444;2023-01-27T07:50:26;102577.09;;;6.30;63.46
48614;BME280;34408;51.426;5.444;2023-01-27T07:52:57;102574.59;;;6.29;63.55
48614;BME280;34408;51.426;5.444;2023-01-27T07:55:26;102587.25;;;6.27;63.53
48614;BME280;34408;51.426;5.444;2023-01-27T07:57:54;102587.84;;;6.20;63.53
48614;BME280;34408;51.426;5.444;2023-01-27T08:00:23;102587.59;;;6.14;63.41
48614;BME280;34408;51.426;5.444;2023-01-27T08:02:51;102592.66;;;6.17;63.71
48614;BME280;34408;51.426;5.444;2023-01-27T08:05:19;102590.88;;;6.08;63.87
48614;BME280;34408;51.426;5.444;2023-01-27T08:07:48;102591.72;;;6.08;63.98
48614;BME280;34408;51.426;5.444;2023-01-27T08:10:16;102598.69;;;6.19;63.80
48614;BME280;34408;51.426;5.444;2023-01-27T08:12:45;102594.66;;;6.33;63.43
48614;BME280;34408;51.426;5.444;2023-01-27T08:15:13;102601.69;;;6.51;62.74
48614;BME280;34408;51.426;5.444;2023-01-27T08:17:52;102590.31;;;6.67;62.21
48614;BME280;34408;51.426;5.444;2023-01-27T08:20:19;102594.81;;;6.84;61.83
48614;BME280;34408;51.426;5.444;2023-01-27T08:22:47;102597.06;;;6.97;61.15
48614;BME280;34408;51.426;5.444;2023-01-27T08:25:15;102583.44;;;7.08;60.70
48614;BME280;34408;51.426;5.444;2023-01-27T08:27:43;102586.84;;;7.18;60.08
48614;BME280;34408;51.426;5.444;2023-01-27T08:30:12;102587.00;;;7.43;59.95
48614;BME280;34408;51.426;5.444;2023-01-27T08:32:40;102590.75;;;7.58;59.88
48614;BME280;34408;51.426;5.444;2023-01-27T08:35:08;102595.13;;;7.59;59.60
48614;BME280;34408;51.426;5.444;2023-01-27T08:37:36;102597.78;;;7.59;58.71
48614;BME280;34408;51.426;5.444;2023-01-27T08:40:04;102596.78;;;7.60;59.18
48614;BME280;34408;51.426;5.444;2023-01-27T08:42:32;102606.84;;;7.66;58.50
48614;BME280;34408;51.426;5.444;2023-01-27T08:45:00;102603.03;;;7.69;58.21
48614;BME280;34408;51.426;5.444;2023-01-27T08:47:29;102603.34;;;7.66;58.46
48614;BME280;34408;51.426;5.444;2023-01-27T08:49:57;102602.72;;;7.46;59.10
48614;BME280;34408;51.426;5.444;2023-01-27T08:52:25;102601.31;;;7.34;59.00
48614;BME280;34408;51.426;5.444;2023-01-27T08:54:53;102615.25;;;7.19;60.23
48614;BME280;34408;51.426;5.444;2023-01-27T08:57:20;102611.16;;;7.07;60.69
48614;BME280;34408;51.426;5.444;2023-01-27T08:59:50;102615.88;;;6.88;60.99
48614;BME280;34408;51.426;5.444;2023-01-27T09:02:17;102622.91;;;6.71;61.35
48614;BME280;34408;51.426;5.444;2023-01-27T09:04:49;102634.81;;;6.59;62.17
48614;BME280;34408;51.426;5.444;2023-01-27T09:07:17;102630.84;;;6.45;62.19
48614;BME280;34408;51.426;5.444;2023-01-27T09:09:45;102624.66;;;6.44;62.76
48614;BME280;34408;51.426;5.444;2023-01-27T09:12:13;102629.00;;;6.45;62.82
48614;BME280;34408;51.426;5.444;2023-01-27T09:14:40;102634.09;;;6.39;62.76
48614;BME280;34408;51.426;5.444;2023-01-27T09:17:08;102641.44;;;6.37;62.91
48614;BME280;34408;51.426;5.444;2023-01-27T09:19:36;102645.63;;;6.39;63.08
48614;BME280;34408;51.426;5.444;2023-01-27T09:22:05;102639.94;;;6.25;63.42
48614;BME280;34408;51.426;5.444;2023-01-27T09:24:33;102644.22;;;6.17;63.27
48614;BME280;34408;51.426;5.444;2023-01-27T09:27:01;102638.47;;;6.12;63.61
48614;BME280;34408;51.426;5.444;2023-01-27T09:29:28;102649.00;;;6.14;64.09
48614;BME280;34408;51.426;5.444;2023-01-27T09:31:56;102657.00;;;6.14;63.82
48614;BME280;34408;51.426;5.444;2023-01-27T09:34:24;102655.72;;;6.18;63.73
48614;BME280;34408;51.426;5.444;2023-01-27T09:36:55;102648.06;;;6.05;63.77
48614;BME280;34408;51.426;5.444;2023-01-27T09:39:25;102649.16;;;6.12;63.77
48614;BME280;34408;51.426;5.444;2023-01-27T09:45:22;102658.69;;;6.15;63.63
48614;BME280;34408;51.426;5.444;2023-01-27T09:48:21;102655.13;;;6.24;63.33
48614;BME280;34408;51.426;5.444;2023-01-27T09:50:54;102650.03;;;6.31;62.80
48614;BME280;34408;51.426;5.444;2023-01-27T09:56:15;102656.28;;;6.22;63.08
48614;BME280;34408;51.426;5.444;2023-01-27T09:58:58;102660.78;;;6.21;63.19
48614;BME280;34408;51.426;5.444;2023-01-27T10:01:35;102657.81;;;6.24;63.36
48614;BME280;34408;51.426;5.444;2023-01-27T10:04:22;102655.97;;;6.25;62.97
48614;BME280;34408;51.426;5.444;2023-01-27T10:07:03;102665.38;;;6.29;63.35
48614;BME280;34408;51.426;5.444;2023-01-27T10:10:08;102676.19;;;6.27;62.96
48614;BME280;34408;51.426;5.444;2023-01-27T10:12:55;102664.44;;;6.20;62.84
48614;BME280;34408;51.426;5.444;2023-01-27T10:15:40;102661.31;;;6.25;62.93
48614;BME280;34408;51.426;5.444;2023-01-27T10:18:24;102657.81;;;6.24;63.07
48614;BME280;34408;51.426;5.444;2023-01-27T10:20:58;102660.31;;;6.26;62.91
48614;BME280;34408;51.426;5.444;2023-01-27T10:23:35;102663.84;;;6.26;63.20
48614;BME280;34408;51.426;5.444;2023-01-27T10:26:17;102661.50;;;6.41;62.63
48614;BME280;34408;51.426;5.444;2023-01-27T10:28:50;102656.16;;;6.41;62.78
48614;BME280;34408;51.426;5.444;2023-01-27T10:31:24;102658.34;;;6.28;62.64
48614;BME280;34408;51.426;5.444;2023-01-27T10:33:54;102658.50;;;6.26;63.05
48614;BME280;34408;51.426;5.444;2023-01-27T10:36:26;102654.44;;;6.22;62.86
48614;BME280;34408;51.426;5.444;2023-01-27T10:39:10;102657.59;;;6.08;63.22
48614;BME280;34408;51.426;5.444;2023-01-27T10:41:49;102663.88;;;6.16;63.16
48614;BME280;34408;51.426;5.444;2023-01-27T10:44:37;102650.94;;;6.22;63.45
48614;BME280;34408;51.426;5.444;2023-01-27T10:47:14;102657.13;;;6.22;63.06
48614;BME280;34408;51.426;5.444;2023-01-27T10:49:47;102668.88;;;6.29;62.91
48614;BME280;34408;51.426;5.444;2023-01-27T10:52:20;102657.13;;;6.22;63.35
48614;BME280;34408;51.426;5.444;2023-01-27T10:54:54;102656.28;;;6.22;62.94
48614;BME280;34408;51.426;5.444;2023-01-27T10:57:29;102653.59;;;6.22;63.41
48614;BME280;34408;51.426;5.444;2023-01-27T11:00:04;102654.63;;;6.11;63.22
48614;BME280;34408;51.426;5.444;2023-01-27T11:02:58;102657.75;;;6.06;63.60
48614;BME280;34408;51.426;5.444;2023-01-27T11:05:32;102658.84;;;6.13;63.58
48614;BME280;34408;51.426;5.444;2023-01-27T11:08:04;102658.44;;;6.08;63.79
48614;BME280;34408;51.426;5.444;2023-01-27T11:10:36;102648.75;;;6.07;63.82
48614;BME280;34408;51.426;5.444;2023-01-27T11:13:25;102647.78;;;6.08;63.77
48614;BME280;34408;51.426;5.444;2023-01-27T11:15:55;102653.66;;;6.12;63.67
48614;BME280;34408;51.426;5.444;2023-01-27T11:18:25;102642.88;;;6.04;64.01
48614;BME280;34408;51.426;5.444;2023-01-27T11:20:58;102639.50;;;6.02;63.88
48614;BME280;34408;51.426;5.444;2023-01-27T11:23:31;102648.59;;;6.09;63.60
48614;BME280;34408;51.426;5.444;2023-01-27T11:26:05;102647.06;;;6.06;63.94
48614;BME280;34408;51.426;5.444;2023-01-27T11:28:41;102644.94;;;6.10;63.64
48614;BME280;34408;51.426;5.444;2023-01-27T11:31:21;102649.66;;;5.98;63.92
48614;BME280;34408;51.426;5.444;2023-01-27T11:33:59;102644.59;;;5.95;64.18
48614;BME280;34408;51.426;5.444;2023-01-27T11:36:32;102645.44;;;5.96;64.20
48614;BME280;34408;51.426;5.444;2023-01-27T11:39:00;102640.41;;;5.93;64.14
48614;BME280;34408;51.426;5.444;2023-01-27T11:41:34;102638.72;;;5.92;64.18
48614;BME280;34408;51.426;5.444;2023-01-27T11:44:06;102646.13;;;5.98;64.23
48614;BME280;34408;51.426;5.444;2023-01-27T11:46:37;102641.03;;;6.04;63.99
48614;BME280;34408;51.426;5.444;2023-01-27T11:49:05;102642.72;;;6.05;63.84
48614;BME280;34408;51.426;5.444;2023-01-27T11:51:35;102641.50;;;6.00;64.18
48614;BME280;34408;51.426;5.444;2023-01-27T11:54:09;102633.72;;;6.06;64.00
48614;BME280;34408;51.426;5.444;2023-01-27T11:56:39;102640.22;;;6.04;64.16
48614;BME280;34408;51.426;5.444;2023-01-27T11:59:13;102643.31;;;5.99;64.24
48614;BME280;34408;51.426;5.444;2023-01-27T12:01:51;102629.78;;;6.10;63.89
48614;BME280;34408;51.426;5.444;2023-01-27T12:04:23;102633.31;;;6.29;63.18
48614;BME280;34408;51.426;5.444;2023-01-27T12:07:00;102636.03;;;6.46;62.87
48614;BME280;34408;51.426;5.444;2023-01-27T12:09:31;102622.53;;;6.66;62.31
48614;BME280;34408;51.426;5.444;2023-01-27T12:12:13;102623.06;;;6.87;61.36
48614;BME280;34408;51.426;5.444;2023-01-27T12:14:47;102617.59;;;6.97;60.98
48614;BME280;34408;51.426;5.444;2023-01-27T12:17:24;102622.59;;;7.17;60.48
48614;BME280;34408;51.426;5.444;2023-01-27T12:19:54;102618.69;;;7.30;59.81
48614;BME280;34408;51.426;5.444;2023-01-27T12:22:25;102616.06;;;7.38;60.02
48614;BME280;34408;51.426;5.444;2023-01-27T12:24:59;102617.94;;;7.45;59.23
48614;BME280;34408;51.426;5.444;2023-01-27T12:27:30;102611.13;;;7.51;59.03
48614;BME280;34408;51.426;5.444;2023-01-27T12:30:05;102608.97;;;7.55;59.11
48614;BME280;34408;51.426;5.444;2023-01-27T12:32:38;102608.09;;;7.46;59.25
48614;BME280;34408;51.426;5.444;2023-01-27T12:35:19;102616.75;;;7.40;59.02
48614;BME280;34408;51.426;5.444;2023-01-27T12:37:48;102612.69;;;7.36;58.87
48614;BME280;34408;51.426;5.444;2023-01-27T12:40:23;102612.22;;;7.40;58.77
48614;BME280;34408;51.426;5.444;2023-01-27T12:43:06;102611.44;;;7.48;58.94
48614;BME280;34408;51.426;5.444;2023-01-27T12:45:36;102616.31;;;7.53;59.11
48614;BME280;34408;51.426;5.444;2023-01-27T12:48:19;102605.81;;;7.59;58.13
48614;BME280;34408;51.426;5.444;2023-01-27T12:50:55;102598.84;;;7.66;58.59
48614;BME280;34408;51.426;5.444;2023-01-27T12:53:30;102600.53;;;7.75;58.51
48614;BME280;34408;51.426;5.444;2023-01-27T12:56:00;102599.75;;;7.83;57.39
48614;BME280;34408;51.426;5.444;2023-01-27T12:58:34;102595.22;;;7.83;58.16
48614;BME280;34408;51.426;5.444;2023-01-27T13:01:04;102597.75;;;7.85;57.24
48614;BME280;34408;51.426;5.444;2023-01-27T13:03:39;102593.59;;;7.91;57.63
48614;BME280;34408;51.426;5.444;2023-01-27T13:06:13;102593.91;;;7.88;57.62
48614;BME280;34408;51.426;5.444;2023-01-27T13:08:42;102596.75;;;7.86;57.02
48614;BME280;34408;51.426;5.444;2023-01-27T13:11:10;102597.03;;;7.75;57.53
48614;BME280;34408;51.426;5.444;2023-01-27T13:13:46;102592.06;;;7.54;58.08
48614;BME280;34408;51.426;5.444;2023-01-27T13:16:16;102590.50;;;7.43;59.03
48614;BME280;34408;51.426;5.444;2023-01-27T13:18:53;102598.81;;;7.32;59.25
48614;BME280;34408;51.426;5.444;2023-01-27T13:21:24;102598.91;;;7.23;59.73
48614;BME280;34408;51.426;5.444;2023-01-27T13:23:54;102604.81;;;7.08;59.74
48614;BME280;34408;51.426;5.444;2023-01-27T13:26:25;102596.91;;;6.99;60.21
48614;BME280;34408;51.426;5.444;2023-01-27T13:28:57;102599.53;;;6.91;60.92